Home > Products > Valid Products > TAF

000
FTUS42 KKEY 302323
TAFEYW
TAF
KEYW 302323Z 0100/0124 11014G20KT P6SM SCT030 SCT200=



000
FTUS42 KKEY 302323
TAFMTH
TAF
KMTH 302323Z 0100/0124 10012G19KT P6SM SCT030 SCT200=



000
FTUS42 KKEY 302320
TAFMTH
TAF
KMTH 302320Z 0100/0124 10012G19KT P6SM SCT025 SCT200=



000
FTUS42 KKEY 302320
TAFEYW
TAF
KEYW 302320Z 0100/0124 11014G20KT P6SM SCT025 SCT200=



000
FTUS42 KKEY 301737
TAFMTH
TAF
KMTH 301737Z 3018/0118 11010G16KT P6SM FEW030 SCT250
     FM010200 10013G19KT P6SM SCT025=



000
FTUS42 KKEY 301737
TAFEYW
TAF
KEYW 301737Z 3018/0118 11013G17KT P6SM FEW030 SCT250
     FM010200 11014G20KT P6SM SCT025=



000
FTUS42 KKEY 301511 AAA
TAFMTH
TAF AMD
KMTH 301511Z 3015/0112 11009G15KT P6SM FEW030 SCT250
     FM010200 10013G19KT P6SM SCT025=



000
FTUS42 KKEY 301511 AAA
TAFEYW
TAF AMD
KEYW 301511Z 3015/0112 11012G16KT P6SM FEW028 BKN250
     FM010200 11014G20KT P6SM SCT025=



000
FTUS42 KKEY 301139
TAFEYW
TAF
KEYW 301139Z 3012/0112 11010G15KT P6SM FEW030 SCT250
     FM010200 11014G20KT P6SM SCT025=



000
FTUS42 KKEY 301139
TAFMTH
TAF
KMTH 301139Z 3012/0112 10009G15KT P6SM FEW030 SCT250
     FM301500 12010KT P6SM FEW030 SCT250
     FM010200 10013G19KT P6SM SCT025=



000
FTUS42 KKEY 301139
TAFEYW
TAF
KEYW 301139Z 3012/0112 11010G15KT P6SM FEW030 SCT250
     FM010200 11014G20KT P6SM SCT025=



000
FTUS42 KKEY 301139
TAFMTH
TAF
KMTH 301139Z 3012/0112 10009G15KT P6SM FEW030 SCT250
     FM301500 12010KT P6SM FEW030 SCT250
     FM010200 10013G19KT P6SM SCT025=



000
FTUS42 KKEY 300904 AAA
TAFMTH
TAF AMD
KMTH 300904Z 3009/0106 11008G15KT P6SM FEW025 SCT250
     FM301500 11010KT P6SM FEW025 SCT250
     FM010200 10012G18KT P6SM SCT025 SCT250=



000
FTUS42 KKEY 300904 AAA
TAFEYW
TAF AMD
KEYW 300904Z 3009/0106 12012KT P6SM FEW025 SCT250
     FM010200 11014G20KT P6SM SCT025 SCT250=



000
FTUS42 KKEY 300540
TAFEYW
TAF
KEYW 300540Z 3006/0106 11012KT P6SM FEW025 SCT250
     FM010200 10014G20KT P6SM SCT025 SCT250=



000
FTUS42 KKEY 300540
TAFMTH
TAF
KMTH 300540Z 3006/0106 10008KT P6SM FEW025 SCT250
     FM301500 11010KT P6SM FEW025 SCT250
     FM010200 11012G18KT P6SM SCT025 SCT250=



000
FTUS42 KKEY 300540
TAFEYW
TAF
KEYW 300540Z 3006/0106 11012KT P6SM FEW025 SCT250
     FM010200 10014G20KT P6SM SCT025 SCT250=



000
FTUS42 KKEY 300540
TAFMTH
TAF
KMTH 300540Z 3006/0106 10008KT P6SM FEW025 SCT250
     FM301500 11010KT P6SM FEW025 SCT250
     FM010200 11012G18KT P6SM SCT025 SCT250=



000
FTUS42 KKEY 292335
TAFEYW
TAF
KEYW 292335Z 3000/3024 10011KT P6SM FEW025 SCT250
     FM301400 12012KT P6SM FEW025 SCT250=



000
FTUS42 KKEY 292335
TAFMTH
TAF
KMTH 292335Z 3000/3024 12007KT P6SM FEW025 SCT250
     FM301400 12010KT P6SM FEW025 SCT250=



000
FTUS42 KKEY 291737
TAFEYW
TAF
KEYW 291737Z 2918/3018 11009KT P6SM FEW025
     FM301400 12012KT P6SM FEW025=



000
FTUS42 KKEY 291737
TAFMTH
TAF
KMTH 291737Z 2918/3018 11007KT P6SM FEW025
     FM301400 12010KT P6SM FEW025=



000
FTUS42 KKEY 291449 AAA
TAFMTH
TAF AMD
KMTH 291449Z 2915/3012 10007KT P6SM FEW024=



000
FTUS42 KKEY 291449 AAA
TAFEYW
TAF AMD
KEYW 291449Z 2915/3012 11009KT P6SM FEW024=



000
FTUS42 KKEY 291128
TAFMTH
TAF
KMTH 291128Z 2912/3012 10007KT P6SM FEW020=



000
FTUS42 KKEY 291128
TAFEYW
TAF
KEYW 291128Z 2912/3012 11009KT P6SM FEW020=



000
FTUS42 KKEY 290857 AAA
TAFEYW
TAF AMD
KEYW 290857Z 2909/3006 11009KT P6SM FEW022=



000
FTUS42 KKEY 290857 AAA
TAFEYW
TAF AMD
KEYW 290857Z 2909/3006 11009KT P6SM FEW022=



000
FTUS42 KKEY 290535
TAFMTH
TAF
KMTH 290535Z 2906/3006 10007KT P6SM FEW022=



000
FTUS42 KKEY 290535
TAFEYW
TAF
KEYW 290535Z 2906/3006 11009KT P6SM FEW022=



000
FTUS42 KKEY 290535
TAFEYW
TAF
KEYW 290535Z 2906/3006 11009KT P6SM FEW022=



000
FTUS42 KKEY 290535
TAFMTH
TAF
KMTH 290535Z 2906/3006 10007KT P6SM FEW022=



000
FTUS42 KKEY 282325
TAFEYW
TAF
KEYW 282325Z 2900/2924 10008KT P6SM FEW025=



000
FTUS42 KKEY 282325
TAFMTH
TAF
KMTH 282325Z 2900/2924 10007KT P6SM FEW025=



000
FTUS42 KKEY 281738
TAFEYW
TAF
KEYW 281738Z 2818/2918 12010KT P6SM FEW025=



000
FTUS42 KKEY 281738
TAFMTH
TAF
KMTH 281738Z 2818/2918 11007KT P6SM SCT022 BKN025
     FM281900 11007KT P6SM SCT025=



000
FTUS42 KKEY 281738
TAFEYW
TAF
KEYW 281738Z 2818/2918 12010KT P6SM FEW025=



000
FTUS42 KKEY 281738
TAFMTH
TAF
KMTH 281738Z 2818/2918 11007KT P6SM SCT022 BKN025
     FM281900 11007KT P6SM SCT025=



000
FTUS42 KKEY 281456 AAA
TAFEYW
TAF AMD
KEYW 281456Z 2815/2912 12010KT P6SM FEW025=



000
FTUS42 KKEY 281133
TAFMTH
TAF
KMTH 281133Z 2812/2912 11007KT P6SM FEW025=



000
FTUS42 KKEY 281133
TAFEYW
TAF
KEYW 281133Z 2812/2912 12009KT P6SM FEW025=



000
FTUS42 KKEY 280856 AAA
TAFEYW
TAF AMD
KEYW 280856Z 2809/2906 12010KT P6SM SCT025=



000
FTUS42 KKEY 280856 AAA
TAFMTH
TAF AMD
KMTH 280856Z 2809/2906 11006KT P6SM SCT025=



000
FTUS42 KKEY 280856 AAA
TAFEYW
TAF AMD
KEYW 280856Z 2809/2906 12010KT P6SM SCT025=



000
FTUS42 KKEY 280856 AAA
TAFMTH
TAF AMD
KMTH 280856Z 2809/2906 11006KT P6SM SCT025=



000
FTUS42 KKEY 280525
TAFEYW
TAF
KEYW 280525Z 2806/2906 11010KT P6SM SCT025=



000
FTUS42 KKEY 280525
TAFMTH
TAF
KMTH 280525Z 2806/2906 11007KT P6SM SCT025=



000
FTUS42 KKEY 280525
TAFEYW
TAF
KEYW 280525Z 2806/2906 11010KT P6SM SCT025=



000
FTUS42 KKEY 280525
TAFMTH
TAF
KMTH 280525Z 2806/2906 11007KT P6SM SCT025=



    US Dept of Commerce
    National Oceanic and Atmospheric Administration
    National Weather Service
    1325 East West Highway
    Silver Spring, MD 20910
    Page Author: NWS Internet Services Team
Disclaimer
Information Quality
Credits
Glossary
Privacy Policy
Freedom of Information Act (FOIA)
About Us
Career Opportunities